CCA725 ZSHC-RJBB
Flight info
| Callsign | CCA725 |
|---|---|
| Flight time | N/A |
| Altitude | 31100 |
| Route | OKTUG B221 NINAS G327 LAMEN/N0455F311 A593 SADLI Y590 BEDAR Y591 FUE Y35 IGLEV |
| Aircraft | A321/M-SDE3FGHIRWY/LB1 |
Departure
| Time | N/A |
|---|---|
| Airport | Hangzhou Xiaoshan International Airport (ZSHC) |
Arrival
| Time | 2026-05-07 13:41 |
|---|---|
| Airport | Kansai International Airport (RJBB) |
| Time | Latitude | Longitude | Altitude | Speed | Heading |
|---|---|---|---|---|---|
| 2026-05-07 12:02 | 30.87356 | 121.88813 | 25428 ft | 491 kts | 65° |
| 2026-05-07 12:03 | 30.88656 | 121.92502 | 25773 ft | 493 kts | 65° |
| 2026-05-07 12:03 | 30.89957 | 121.96211 | 26118 ft | 496 kts | 65° |
| 2026-05-07 12:03 | 30.91260 | 121.99930 | 26465 ft | 498 kts | 65° |
| 2026-05-07 12:03 | 30.92565 | 122.03672 | 26824 ft | 500 kts | 65° |
| 2026-05-07 12:04 | 30.93879 | 122.07439 | 27120 ft | 503 kts | 65° |
| 2026-05-07 12:04 | 30.95202 | 122.11221 | 27423 ft | 506 kts | 65° |
| 2026-05-07 12:04 | 30.96514 | 122.14972 | 27717 ft | 508 kts | 65° |
| 2026-05-07 12:04 | 30.97846 | 122.18796 | 28043 ft | 510 kts | 65° |
| 2026-05-07 12:05 | 30.99052 | 122.22705 | 28349 ft | 514 kts | 72° |
| 2026-05-07 12:05 | 30.99785 | 122.26785 | 28652 ft | 518 kts | 82° |
| 2026-05-07 12:05 | 31.00014 | 122.30985 | 28956 ft | 520 kts | 90° |
| 2026-05-07 12:05 | 31.00009 | 122.35208 | 29256 ft | 522 kts | 90° |
| 2026-05-07 12:06 | 31.00004 | 122.39439 | 29600 ft | 523 kts | 90° |
| 2026-05-07 12:06 | 30.99999 | 122.43680 | 29955 ft | 523 kts | 90° |
| 2026-05-07 12:06 | 30.99998 | 122.47916 | 30356 ft | 522 kts | 90° |
| 2026-05-07 12:06 | 31.00000 | 122.52140 | 30685 ft | 521 kts | 90° |
| 2026-05-07 12:07 | 31.00005 | 122.56368 | 30986 ft | 522 kts | 90° |
| 2026-05-07 12:07 | 31.00005 | 122.60603 | 31092 ft | 520 kts | 90° |
| 2026-05-07 12:07 | 31.00000 | 122.64773 | 31112 ft | 510 kts | 90° |
| 2026-05-07 12:08 | 31.00006 | 122.72986 | 31114 ft | 505 kts | 88° |
| 2026-05-07 12:08 | 31.00454 | 122.77025 | 31084 ft | 503 kts | 74° |
| 2026-05-07 12:08 | 31.01414 | 122.80935 | 30968 ft | 501 kts | 72° |
| 2026-05-07 12:09 | 31.03444 | 122.88720 | 31006 ft | 502 kts | 71° |
| 2026-05-07 12:09 | 31.05494 | 122.96504 | 31007 ft | 502 kts | 71° |
| 2026-05-07 12:10 | 31.07506 | 123.04236 | 31005 ft | 502 kts | 72° |
| 2026-05-07 12:10 | 31.09511 | 123.12034 | 31028 ft | 502 kts | 72° |
| 2026-05-07 12:11 | 31.11510 | 123.19827 | 31019 ft | 501 kts | 72° |
| 2026-05-07 12:11 | 31.13527 | 123.27660 | 31016 ft | 500 kts | 72° |
| 2026-05-07 12:12 | 31.15506 | 123.35393 | 31012 ft | 500 kts | 72° |
| 2026-05-07 12:12 | 31.17486 | 123.43167 | 31008 ft | 500 kts | 72° |
| 2026-05-07 12:13 | 31.19462 | 123.50942 | 31007 ft | 499 kts | 72° |
| 2026-05-07 12:13 | 31.21432 | 123.58725 | 31015 ft | 499 kts | 73° |
| 2026-05-07 12:14 | 31.23390 | 123.66496 | 31013 ft | 498 kts | 72° |
| 2026-05-07 12:14 | 31.25357 | 123.74257 | 30991 ft | 499 kts | 72° |
| 2026-05-07 12:15 | 31.27317 | 123.82045 | 30986 ft | 500 kts | 72° |
| 2026-05-07 12:15 | 31.29271 | 123.89848 | 30987 ft | 500 kts | 72° |
| 2026-05-07 12:16 | 31.31230 | 123.97657 | 31014 ft | 501 kts | 72° |
| 2026-05-07 12:16 | 31.33176 | 124.05492 | 31003 ft | 501 kts | 73° |
| 2026-05-07 12:17 | 31.35124 | 124.13323 | 30995 ft | 501 kts | 73° |
| 2026-05-07 12:17 | 31.37072 | 124.21152 | 30994 ft | 501 kts | 73° |
| 2026-05-07 12:18 | 31.39010 | 124.28991 | 30989 ft | 501 kts | 73° |
| 2026-05-07 12:18 | 31.40942 | 124.36834 | 30994 ft | 501 kts | 72° |
| 2026-05-07 12:19 | 31.42867 | 124.44662 | 30994 ft | 501 kts | 73° |
| 2026-05-07 12:19 | 31.44794 | 124.52509 | 30979 ft | 502 kts | 72° |
| 2026-05-07 12:20 | 31.46725 | 124.60376 | 30983 ft | 503 kts | 72° |
| 2026-05-07 12:20 | 31.48319 | 124.66930 | 30987 ft | 504 kts | 72° |
| 2026-05-07 12:21 | 31.50232 | 124.74841 | 30986 ft | 505 kts | 72° |
| 2026-05-07 12:21 | 31.52152 | 124.82772 | 31019 ft | 506 kts | 73° |
| 2026-05-07 12:22 | 31.54063 | 124.90693 | 31032 ft | 504 kts | 73° |
| 2026-05-07 12:22 | 31.55970 | 124.98593 | 31033 ft | 503 kts | 73° |
| 2026-05-07 12:23 | 31.57867 | 125.06482 | 31013 ft | 503 kts | 72° |
| 2026-05-07 12:23 | 31.59765 | 125.14375 | 31008 ft | 503 kts | 73° |
| 2026-05-07 12:24 | 31.61650 | 125.22273 | 31022 ft | 503 kts | 73° |
| 2026-05-07 12:24 | 31.63519 | 125.30169 | 31014 ft | 502 kts | 73° |
| 2026-05-07 12:25 | 31.65389 | 125.38044 | 31009 ft | 501 kts | 73° |
| 2026-05-07 12:25 | 31.67260 | 125.45927 | 31004 ft | 501 kts | 73° |
| 2026-05-07 12:26 | 31.69118 | 125.53804 | 30988 ft | 501 kts | 73° |
| 2026-05-07 12:26 | 31.70970 | 125.61686 | 31010 ft | 501 kts | 73° |
| 2026-05-07 12:27 | 31.72818 | 125.69576 | 31020 ft | 501 kts | 74° |
| 2026-05-07 12:27 | 31.74582 | 125.77488 | 31016 ft | 500 kts | 75° |
| 2026-05-07 12:28 | 31.76302 | 125.85406 | 31010 ft | 500 kts | 75° |
| 2026-05-07 12:28 | 31.78039 | 125.93335 | 31011 ft | 501 kts | 75° |
| 2026-05-07 12:29 | 31.79782 | 126.01254 | 31012 ft | 501 kts | 75° |
| 2026-05-07 12:29 | 31.81498 | 126.09129 | 31034 ft | 500 kts | 75° |
| 2026-05-07 12:30 | 31.83222 | 126.17035 | 31029 ft | 499 kts | 75° |
| 2026-05-07 12:30 | 31.84937 | 126.24943 | 31022 ft | 499 kts | 75° |
| 2026-05-07 12:31 | 31.86641 | 126.32845 | 31015 ft | 499 kts | 75° |
| 2026-05-07 12:31 | 31.88342 | 126.40757 | 31017 ft | 499 kts | 75° |
| 2026-05-07 12:32 | 31.90043 | 126.48657 | 31028 ft | 498 kts | 76° |
| 2026-05-07 12:32 | 31.91770 | 126.56557 | 31012 ft | 498 kts | 75° |
| 2026-05-07 12:33 | 31.94398 | 126.68383 | 31007 ft | 497 kts | 75° |
| 2026-05-07 12:33 | 31.96147 | 126.76318 | 30990 ft | 497 kts | 75° |
| 2026-05-07 12:34 | 31.97862 | 126.84155 | 31015 ft | 498 kts | 76° |
| 2026-05-07 12:34 | 31.99581 | 126.92048 | 31003 ft | 497 kts | 76° |
| 2026-05-07 12:35 | 32.01302 | 126.99953 | 30991 ft | 498 kts | 76° |
| 2026-05-07 12:35 | 32.03017 | 127.07856 | 30993 ft | 498 kts | 76° |
| 2026-05-07 12:36 | 32.05234 | 127.15559 | 30992 ft | 497 kts | 65° |
| 2026-05-07 12:36 | 32.08062 | 127.23013 | 31004 ft | 498 kts | 65° |
| 2026-05-07 12:37 | 32.10870 | 127.30475 | 30992 ft | 498 kts | 65° |
| 2026-05-07 12:37 | 32.13672 | 127.37933 | 30990 ft | 497 kts | 65° |
| 2026-05-07 12:38 | 32.16469 | 127.45399 | 30991 ft | 497 kts | 65° |
| 2026-05-07 12:38 | 32.19262 | 127.52874 | 31001 ft | 498 kts | 65° |
| 2026-05-07 12:39 | 32.22059 | 127.60353 | 30997 ft | 498 kts | 65° |
| 2026-05-07 12:39 | 32.24860 | 127.67853 | 30995 ft | 499 kts | 66° |
| 2026-05-07 12:40 | 32.27626 | 127.75301 | 30989 ft | 498 kts | 65° |
| 2026-05-07 12:40 | 32.30410 | 127.82805 | 31010 ft | 498 kts | 65° |
| 2026-05-07 12:41 | 32.33182 | 127.90300 | 30999 ft | 498 kts | 66° |
| 2026-05-07 12:41 | 32.35953 | 127.97802 | 30984 ft | 497 kts | 65° |
| 2026-05-07 12:42 | 32.38720 | 128.05308 | 30981 ft | 497 kts | 65° |
| 2026-05-07 12:42 | 32.41480 | 128.12810 | 30984 ft | 498 kts | 65° |
| 2026-05-07 12:43 | 32.44237 | 128.20328 | 30975 ft | 498 kts | 66° |
| 2026-05-07 12:43 | 32.46988 | 128.27852 | 30984 ft | 498 kts | 65° |
| 2026-05-07 12:44 | 32.49738 | 128.35367 | 30986 ft | 497 kts | 66° |
| 2026-05-07 12:44 | 32.52476 | 128.42887 | 31002 ft | 497 kts | 66° |
| 2026-05-07 12:45 | 32.55205 | 128.50407 | 30992 ft | 497 kts | 66° |
| 2026-05-07 12:45 | 32.57939 | 128.57946 | 30985 ft | 497 kts | 66° |
| 2026-05-07 12:46 | 32.60665 | 128.65482 | 30982 ft | 497 kts | 66° |
| 2026-05-07 12:46 | 32.63390 | 128.73022 | 30992 ft | 497 kts | 66° |
| 2026-05-07 12:47 | 32.66107 | 128.80553 | 30989 ft | 496 kts | 66° |
| 2026-05-07 12:47 | 32.68699 | 128.88138 | 30986 ft | 496 kts | 69° |
| 2026-05-07 12:48 | 32.71032 | 128.95846 | 30982 ft | 496 kts | 70° |
| 2026-05-07 12:48 | 32.73305 | 129.03574 | 31001 ft | 495 kts | 70° |
| 2026-05-07 12:49 | 32.75645 | 129.11274 | 30993 ft | 495 kts | 69° |
| 2026-05-07 12:49 | 32.78021 | 129.18952 | 30981 ft | 495 kts | 69° |
| 2026-05-07 12:50 | 32.80386 | 129.26628 | 30984 ft | 494 kts | 69° |
| 2026-05-07 12:50 | 32.82722 | 129.34307 | 30991 ft | 494 kts | 70° |
| 2026-05-07 12:51 | 32.85052 | 129.41998 | 30974 ft | 494 kts | 69° |
| 2026-05-07 12:51 | 32.87389 | 129.49688 | 30973 ft | 494 kts | 69° |
| 2026-05-07 12:52 | 32.89714 | 129.57373 | 30973 ft | 493 kts | 69° |
| 2026-05-07 12:52 | 32.92029 | 129.65056 | 30988 ft | 493 kts | 69° |
| 2026-05-07 12:53 | 32.94343 | 129.72740 | 30984 ft | 493 kts | 69° |
| 2026-05-07 12:53 | 32.96640 | 129.80417 | 30961 ft | 492 kts | 69° |
| 2026-05-07 12:54 | 32.98941 | 129.88095 | 30970 ft | 492 kts | 69° |
| 2026-05-07 12:54 | 33.01234 | 129.95770 | 30992 ft | 492 kts | 69° |
| 2026-05-07 12:55 | 33.03524 | 130.03449 | 30965 ft | 492 kts | 69° |
| 2026-05-07 12:55 | 33.05802 | 130.11128 | 30957 ft | 491 kts | 69° |
| 2026-05-07 12:56 | 33.08071 | 130.18810 | 30955 ft | 491 kts | 69° |
| 2026-05-07 12:56 | 33.10344 | 130.26479 | 30947 ft | 490 kts | 69° |
| 2026-05-07 12:57 | 33.12608 | 130.34141 | 30954 ft | 490 kts | 70° |
| 2026-05-07 12:57 | 33.14856 | 130.41807 | 30948 ft | 489 kts | 70° |
| 2026-05-07 12:58 | 33.17107 | 130.49482 | 30947 ft | 489 kts | 70° |
| 2026-05-07 12:58 | 33.19334 | 130.57103 | 30953 ft | 489 kts | 70° |
| 2026-05-07 12:59 | 33.21571 | 130.64775 | 30944 ft | 490 kts | 70° |
| 2026-05-07 12:59 | 33.23827 | 130.72510 | 30944 ft | 490 kts | 70° |
| 2026-05-07 13:00 | 33.26057 | 130.80206 | 30947 ft | 490 kts | 70° |
| 2026-05-07 13:00 | 33.28279 | 130.87915 | 30951 ft | 491 kts | 70° |
| 2026-05-07 13:01 | 33.30491 | 130.95588 | 30946 ft | 491 kts | 70° |
| 2026-05-07 13:01 | 33.32721 | 131.03314 | 30944 ft | 492 kts | 70° |
| 2026-05-07 13:02 | 33.34938 | 131.11048 | 30942 ft | 492 kts | 70° |
| 2026-05-07 13:02 | 33.37152 | 131.18790 | 30936 ft | 492 kts | 70° |
| 2026-05-07 13:03 | 33.39011 | 131.25293 | 30947 ft | 493 kts | 70° |
| 2026-05-07 13:03 | 33.41578 | 131.34313 | 30940 ft | 493 kts | 70° |
| 2026-05-07 13:04 | 33.43431 | 131.40820 | 30935 ft | 493 kts | 70° |
| 2026-05-07 13:04 | 33.45636 | 131.48593 | 30942 ft | 493 kts | 70° |
| 2026-05-07 13:05 | 33.47826 | 131.56380 | 30931 ft | 493 kts | 71° |
| 2026-05-07 13:05 | 33.50024 | 131.64224 | 30926 ft | 494 kts | 70° |
| 2026-05-07 13:06 | 33.52197 | 131.71964 | 30948 ft | 494 kts | 70° |
| 2026-05-07 13:06 | 33.54384 | 131.79771 | 30939 ft | 494 kts | 70° |
| 2026-05-07 13:07 | 33.56567 | 131.87576 | 30938 ft | 494 kts | 70° |
| 2026-05-07 13:07 | 33.58737 | 131.95391 | 30932 ft | 494 kts | 71° |
| 2026-05-07 13:08 | 33.60901 | 132.03211 | 30938 ft | 494 kts | 71° |
| 2026-05-07 13:08 | 33.63070 | 132.11027 | 30903 ft | 494 kts | 71° |
| 2026-05-07 13:09 | 33.64155 | 132.14941 | 30451 ft | 494 kts | 71° |
| 2026-05-07 13:09 | 33.65236 | 132.18858 | 29990 ft | 494 kts | 71° |
| 2026-05-07 13:09 | 33.66312 | 132.22763 | 29526 ft | 495 kts | 71° |
| 2026-05-07 13:09 | 33.67394 | 132.26701 | 29199 ft | 496 kts | 71° |
| 2026-05-07 13:10 | 33.68471 | 132.30631 | 28848 ft | 496 kts | 71° |
| 2026-05-07 13:10 | 33.69553 | 132.34577 | 28513 ft | 497 kts | 71° |
| 2026-05-07 13:10 | 33.70635 | 132.38526 | 28179 ft | 498 kts | 72° |
| 2026-05-07 13:10 | 33.71717 | 132.42481 | 27829 ft | 499 kts | 72° |
| 2026-05-07 13:11 | 33.72797 | 132.46437 | 27456 ft | 498 kts | 72° |
| 2026-05-07 13:11 | 33.73872 | 132.50382 | 27083 ft | 496 kts | 72° |
| 2026-05-07 13:11 | 33.74927 | 132.54258 | 26720 ft | 494 kts | 72° |
| 2026-05-07 13:11 | 33.75993 | 132.58164 | 26377 ft | 491 kts | 72° |
| 2026-05-07 13:12 | 33.77055 | 132.62062 | 26010 ft | 489 kts | 72° |
| 2026-05-07 13:12 | 33.78105 | 132.65939 | 25658 ft | 487 kts | 72° |
| 2026-05-07 13:12 | 33.79148 | 132.69797 | 25308 ft | 485 kts | 72° |
| 2026-05-07 13:12 | 33.80189 | 132.73649 | 24960 ft | 483 kts | 72° |
| 2026-05-07 13:13 | 33.81224 | 132.77480 | 24622 ft | 481 kts | 72° |
| 2026-05-07 13:13 | 33.82252 | 132.81295 | 24290 ft | 479 kts | 72° |
| 2026-05-07 13:13 | 33.83275 | 132.85097 | 23957 ft | 477 kts | 72° |
| 2026-05-07 13:13 | 33.84291 | 132.88891 | 23628 ft | 476 kts | 73° |
| 2026-05-07 13:14 | 33.85304 | 132.92673 | 23265 ft | 473 kts | 73° |
| 2026-05-07 13:14 | 33.86269 | 132.96440 | 22862 ft | 470 kts | 74° |
| 2026-05-07 13:14 | 33.87172 | 133.00211 | 22469 ft | 467 kts | 75° |
| 2026-05-07 13:14 | 33.88031 | 133.03974 | 22071 ft | 465 kts | 76° |
| 2026-05-07 13:15 | 33.88866 | 133.07714 | 21691 ft | 462 kts | 76° |
| 2026-05-07 13:15 | 33.89699 | 133.11432 | 21334 ft | 459 kts | 76° |
| 2026-05-07 13:15 | 33.90539 | 133.15126 | 20972 ft | 456 kts | 75° |
| 2026-05-07 13:15 | 33.91386 | 133.18800 | 20615 ft | 454 kts | 75° |
| 2026-05-07 13:16 | 33.92230 | 133.22440 | 20248 ft | 451 kts | 75° |
| 2026-05-07 13:16 | 33.93067 | 133.26033 | 19880 ft | 448 kts | 75° |
| 2026-05-07 13:16 | 33.93914 | 133.29669 | 19533 ft | 445 kts | 75° |
| 2026-05-07 13:16 | 33.94743 | 133.33245 | 19172 ft | 442 kts | 75° |
| 2026-05-07 13:17 | 33.95563 | 133.36798 | 18834 ft | 440 kts | 75° |
| 2026-05-07 13:17 | 33.96376 | 133.40337 | 18515 ft | 437 kts | 75° |
| 2026-05-07 13:17 | 33.97184 | 133.43856 | 18178 ft | 434 kts | 75° |
| 2026-05-07 13:17 | 33.97985 | 133.47347 | 17917 ft | 431 kts | 75° |
| 2026-05-07 13:18 | 33.98782 | 133.50828 | 17943 ft | 431 kts | 75° |
| 2026-05-07 13:18 | 33.99578 | 133.54316 | 17947 ft | 432 kts | 76° |
| 2026-05-07 13:18 | 34.00374 | 133.57801 | 17939 ft | 432 kts | 75° |
| 2026-05-07 13:18 | 34.01170 | 133.61290 | 17950 ft | 432 kts | 75° |
| 2026-05-07 13:19 | 34.01967 | 133.64779 | 17934 ft | 432 kts | 75° |
| 2026-05-07 13:19 | 34.02751 | 133.68222 | 17953 ft | 432 kts | 76° |
| 2026-05-07 13:19 | 34.03540 | 133.71706 | 17944 ft | 431 kts | 76° |
| 2026-05-07 13:19 | 34.04329 | 133.75195 | 17943 ft | 431 kts | 76° |
| 2026-05-07 13:20 | 34.05110 | 133.78684 | 17946 ft | 431 kts | 77° |
| 2026-05-07 13:20 | 34.05635 | 133.82234 | 17946 ft | 430 kts | 85° |
| 2026-05-07 13:20 | 34.05888 | 133.85820 | 17941 ft | 428 kts | 87° |
| 2026-05-07 13:20 | 34.06131 | 133.89405 | 17944 ft | 428 kts | 87° |
| 2026-05-07 13:21 | 34.06381 | 133.92980 | 17942 ft | 428 kts | 87° |
| 2026-05-07 13:21 | 34.06626 | 133.96560 | 17947 ft | 428 kts | 87° |
| 2026-05-07 13:21 | 34.06867 | 134.00132 | 17954 ft | 428 kts | 87° |
| 2026-05-07 13:21 | 34.07107 | 134.03713 | 17775 ft | 428 kts | 87° |
| 2026-05-07 13:22 | 34.07344 | 134.07279 | 17525 ft | 425 kts | 87° |
| 2026-05-07 13:22 | 34.07580 | 134.10827 | 17164 ft | 423 kts | 87° |
| 2026-05-07 13:22 | 34.07816 | 134.14347 | 16784 ft | 420 kts | 87° |
| 2026-05-07 13:22 | 34.08153 | 134.17837 | 16417 ft | 419 kts | 81° |
| 2026-05-07 13:23 | 34.08895 | 134.21225 | 16041 ft | 417 kts | 71° |
| 2026-05-07 13:23 | 34.10050 | 134.24428 | 15678 ft | 415 kts | 62° |
| 2026-05-07 13:23 | 34.11575 | 134.27369 | 15319 ft | 413 kts | 53° |
| 2026-05-07 13:23 | 34.13252 | 134.30182 | 14970 ft | 411 kts | 53° |
| 2026-05-07 13:24 | 34.14911 | 134.32983 | 14613 ft | 409 kts | 53° |
| 2026-05-07 13:24 | 34.16559 | 134.35780 | 14258 ft | 407 kts | 54° |
| 2026-05-07 13:24 | 34.18188 | 134.38560 | 13919 ft | 404 kts | 54° |
| 2026-05-07 13:24 | 34.19804 | 134.41323 | 13564 ft | 402 kts | 54° |
| 2026-05-07 13:25 | 34.21414 | 134.44078 | 13164 ft | 400 kts | 54° |
| 2026-05-07 13:25 | 34.23016 | 134.46812 | 12793 ft | 396 kts | 54° |
| 2026-05-07 13:25 | 34.24616 | 134.49504 | 12417 ft | 393 kts | 51° |
| 2026-05-07 13:25 | 34.26428 | 134.51949 | 12037 ft | 389 kts | 43° |
| 2026-05-07 13:26 | 34.28333 | 134.54244 | 11675 ft | 386 kts | 44° |
| 2026-05-07 13:26 | 34.30225 | 134.56535 | 11312 ft | 382 kts | 44° |
| 2026-05-07 13:26 | 34.32079 | 134.58790 | 10980 ft | 373 kts | 44° |
| 2026-05-07 13:26 | 34.33882 | 134.60985 | 10738 ft | 363 kts | 44° |
| 2026-05-07 13:27 | 34.35635 | 134.63118 | 10498 ft | 353 kts | 44° |
| 2026-05-07 13:27 | 34.37347 | 134.65199 | 10265 ft | 344 kts | 44° |
| 2026-05-07 13:27 | 34.39015 | 134.67229 | 10032 ft | 336 kts | 44° |
| 2026-05-07 13:27 | 34.40644 | 134.69211 | 9798 ft | 328 kts | 44° |
| 2026-05-07 13:28 | 34.42224 | 134.71136 | 9548 ft | 321 kts | 44° |
| 2026-05-07 13:28 | 34.43794 | 134.73053 | 9286 ft | 316 kts | 44° |
| 2026-05-07 13:28 | 34.45334 | 134.74935 | 9028 ft | 313 kts | 44° |
| 2026-05-07 13:28 | 34.46861 | 134.76800 | 8781 ft | 311 kts | 44° |
| 2026-05-07 13:29 | 34.48375 | 134.78649 | 8525 ft | 308 kts | 44° |
| 2026-05-07 13:29 | 34.49883 | 134.80491 | 8273 ft | 306 kts | 44° |
| 2026-05-07 13:29 | 34.51382 | 134.82319 | 8025 ft | 305 kts | 44° |
| 2026-05-07 13:29 | 34.52740 | 134.84279 | 7779 ft | 304 kts | 55° |
| 2026-05-07 13:30 | 34.53797 | 134.86482 | 7535 ft | 302 kts | 65° |
| 2026-05-07 13:30 | 34.54532 | 134.88858 | 7287 ft | 300 kts | 75° |
| 2026-05-07 13:30 | 34.55016 | 134.91309 | 7039 ft | 298 kts | 78° |
| 2026-05-07 13:30 | 34.55490 | 134.93745 | 6809 ft | 296 kts | 77° |
| 2026-05-07 13:31 | 34.55967 | 134.96170 | 6578 ft | 295 kts | 78° |
| 2026-05-07 13:31 | 34.56444 | 134.98597 | 6334 ft | 297 kts | 77° |
| 2026-05-07 13:31 | 34.56922 | 135.01031 | 6091 ft | 295 kts | 78° |
| 2026-05-07 13:31 | 34.57393 | 135.03447 | 5841 ft | 293 kts | 77° |
| 2026-05-07 13:32 | 34.57862 | 135.05849 | 5590 ft | 292 kts | 77° |
| 2026-05-07 13:32 | 34.58327 | 135.08228 | 5342 ft | 291 kts | 78° |
| 2026-05-07 13:32 | 34.58797 | 135.10644 | 5096 ft | 289 kts | 78° |
| 2026-05-07 13:32 | 34.59246 | 135.12969 | 4853 ft | 283 kts | 77° |
| 2026-05-07 13:33 | 34.59694 | 135.15300 | 4588 ft | 277 kts | 77° |
| 2026-05-07 13:33 | 34.60124 | 135.17520 | 4353 ft | 270 kts | 77° |
| 2026-05-07 13:33 | 34.60536 | 135.19715 | 4111 ft | 263 kts | 81° |
| 2026-05-07 13:33 | 34.60634 | 135.21878 | 4000 ft | 251 kts | 93° |
| 2026-05-07 13:34 | 34.60581 | 135.23958 | 3856 ft | 245 kts | 92° |
| 2026-05-07 13:34 | 34.60501 | 135.27996 | 3371 ft | 239 kts | 92° |
| 2026-05-07 13:34 | 34.60464 | 135.29962 | 3156 ft | 233 kts | 92° |
| 2026-05-07 13:35 | 34.60427 | 135.31902 | 2907 ft | 226 kts | 93° |
| 2026-05-07 13:35 | 34.60393 | 135.33778 | 2678 ft | 219 kts | 94° |
| 2026-05-07 13:35 | 34.60322 | 135.35570 | 2561 ft | 206 kts | 104° |
| 2026-05-07 13:35 | 34.59678 | 135.37018 | 2453 ft | 192 kts | 141° |
| 2026-05-07 13:36 | 34.58533 | 135.37689 | 2333 ft | 184 kts | 174° |
| 2026-05-07 13:36 | 34.57272 | 135.37690 | 2217 ft | 181 kts | 184° |
| 2026-05-07 13:36 | 34.56027 | 135.37546 | 2087 ft | 179 kts | 195° |
| 2026-05-07 13:36 | 34.54872 | 135.37022 | 1969 ft | 177 kts | 201° |
| 2026-05-07 13:37 | 34.53730 | 135.36484 | 1845 ft | 174 kts | 201° |
| 2026-05-07 13:37 | 34.52616 | 135.35962 | 1719 ft | 171 kts | 201° |
| 2026-05-07 13:37 | 34.51522 | 135.35453 | 1592 ft | 170 kts | 201° |
| 2026-05-07 13:37 | 34.50419 | 135.34940 | 1454 ft | 164 kts | 200° |
| 2026-05-07 13:38 | 34.49440 | 135.34354 | 1338 ft | 156 kts | 217° |
| 2026-05-07 13:38 | 34.48762 | 135.33413 | 1259 ft | 143 kts | 227° |
| 2026-05-07 13:38 | 34.48159 | 135.32510 | 1202 ft | 136 kts | 228° |
| 2026-05-07 13:38 | 34.47571 | 135.31632 | 1142 ft | 132 kts | 228° |
| 2026-05-07 13:39 | 34.46997 | 135.30775 | 1026 ft | 130 kts | 228° |
| 2026-05-07 13:39 | 34.46424 | 135.29920 | 874 ft | 131 kts | 229° |
| 2026-05-07 13:39 | 34.45854 | 135.29068 | 724 ft | 129 kts | 229° |
| 2026-05-07 13:39 | 34.45290 | 135.28223 | 561 ft | 128 kts | 230° |
| 2026-05-07 13:40 | 34.44721 | 135.27375 | 367 ft | 130 kts | 229° |
| 2026-05-07 13:40 | 34.44158 | 135.26535 | 203 ft | 129 kts | 230° |
| 2026-05-07 13:40 | 34.43607 | 135.25712 | 32 ft | 127 kts | 229° |
| 2026-05-07 13:40 | 34.43114 | 135.24980 | 15 ft | 87 kts | 231° |
| 2026-05-07 13:41 | 34.42832 | 135.24560 | 14 ft | 56 kts | 231° |
| 2026-05-07 13:41 | 34.42590 | 135.24196 | 14 ft | 40 kts | 231° |
| 2026-05-07 13:41 | 34.42485 | 135.23998 | 14 ft | 27 kts | 246° |
| 2026-05-07 13:41 | 34.42461 | 135.23885 | 14 ft | 8 kts | 259° |
| 2026-05-07 13:42 | 34.42451 | 135.23817 | 14 ft | 8 kts | 260° |
| 2026-05-07 13:42 | 34.42453 | 135.23756 | 16 ft | 5 kts | 293° |
| 2026-05-07 13:42 | 34.42462 | 135.23743 | 17 ft | 0 kts | 316° |
| 2026-05-07 13:42 | 34.42463 | 135.23742 | 17 ft | 1 kts | 317° |
| 2026-05-07 13:43 | 34.42481 | 135.23734 | 18 ft | 5 kts | 348° |
| 2026-05-07 13:43 | 34.42530 | 135.23761 | 20 ft | 12 kts | 47° |
| 2026-05-07 13:43 | 34.42601 | 135.23868 | 19 ft | 20 kts | 48° |
| 2026-05-07 13:43 | 34.42694 | 135.24004 | 19 ft | 22 kts | 51° |
| 2026-05-07 13:44 | 34.42790 | 135.24148 | 19 ft | 21 kts | 51° |
| 2026-05-07 13:44 | 34.42884 | 135.24289 | 19 ft | 21 kts | 51° |
| 2026-05-07 13:44 | 34.42976 | 135.24424 | 19 ft | 21 kts | 51° |
| 2026-05-07 13:44 | 34.43066 | 135.24561 | 19 ft | 21 kts | 51° |
| 2026-05-07 13:45 | 34.43156 | 135.24696 | 19 ft | 21 kts | 51° |
| 2026-05-07 13:45 | 34.43245 | 135.24828 | 20 ft | 19 kts | 51° |
| 2026-05-07 13:45 | 34.43300 | 135.24907 | 19 ft | 9 kts | 44° |
| 2026-05-07 13:45 | 34.43361 | 135.24914 | 19 ft | 10 kts | 334° |
| 2026-05-07 13:46 | 34.43414 | 135.24865 | 20 ft | 10 kts | 321° |
| 2026-05-07 13:46 | 34.43433 | 135.24820 | 19 ft | 9 kts | 282° |
| 2026-05-07 13:46 | 34.43462 | 135.24755 | 19 ft | 9 kts | 317° |
| 2026-05-07 13:46 | 34.43492 | 135.24726 | 20 ft | 1 kts | 321° |
| 2026-05-07 13:47 | 34.43497 | 135.24721 | 19 ft | 1 kts | 321° |
| 2026-05-07 13:47 | 34.43499 | 135.24719 | 19 ft | 0 kts | 321° |